createdAt,value
2023-01-07T00:01:48.062Z,10.51
2023-01-07T00:04:16.392Z,10.53
2023-01-07T00:06:47.215Z,10.53
2023-01-07T00:09:18.565Z,10.53
2023-01-07T00:11:46.081Z,10.53
2023-01-07T00:14:14.798Z,10.54
2023-01-07T00:16:43.131Z,10.54
2023-01-07T00:19:14.868Z,10.55
2023-01-07T00:21:42.924Z,10.50
2023-01-07T00:24:11.639Z,10.49
2023-01-07T00:26:40.550Z,10.50
2023-01-07T00:29:08.844Z,10.52
2023-01-07T00:31:39.424Z,10.52
2023-01-07T00:34:08.800Z,10.51
2023-01-07T00:36:44.761Z,10.52
2023-01-07T00:39:19.388Z,10.53
2023-01-07T00:42:08.143Z,10.51
2023-01-07T00:44:37.654Z,10.52
2023-01-07T00:47:05.393Z,10.53
2023-01-07T00:49:33.271Z,10.53
2023-01-07T00:52:00.757Z,10.52
2023-01-07T00:54:28.347Z,10.51
2023-01-07T00:56:56.013Z,10.49
2023-01-07T00:59:23.521Z,10.49
2023-01-07T01:01:51.968Z,10.49
2023-01-07T01:04:19.512Z,10.49
2023-01-07T01:06:47.105Z,10.48
2023-01-07T01:09:14.712Z,10.46
2023-01-07T01:11:42.242Z,10.44
2023-01-07T01:14:12.037Z,10.41
2023-01-07T01:16:39.718Z,10.38
2023-01-07T01:19:07.532Z,10.37
2023-01-07T01:21:34.939Z,10.34
2023-01-07T01:24:02.441Z,10.33
2023-01-07T01:26:29.948Z,10.31
2023-01-07T01:28:57.578Z,10.28
2023-01-07T01:31:25.788Z,10.26
2023-01-07T01:33:58.055Z,10.25
2023-01-07T01:36:25.626Z,10.18
2023-01-07T01:38:57.474Z,10.16
2023-01-07T01:41:25.757Z,10.16
2023-01-07T01:43:55.623Z,10.17
2023-01-07T01:46:38.029Z,10.19
2023-01-07T01:49:41.441Z,10.16
2023-01-07T01:52:16.886Z,10.15
2023-01-07T01:54:55.346Z,10.14
2023-01-07T01:57:25.472Z,10.13
2023-01-07T01:59:57.393Z,10.11
2023-01-07T02:02:36.430Z,10.10
2023-01-07T02:05:05.175Z,10.07
2023-01-07T02:07:32.682Z,10.05
2023-01-07T02:10:11.899Z,10.04
2023-01-07T02:13:49.447Z,10.04
2023-01-07T02:16:37.391Z,9.99
2023-01-07T02:19:41.950Z,10.00
2023-01-07T02:23:02.486Z,9.97
2023-01-07T02:26:13.627Z,9.96
2023-01-07T02:29:50.979Z,9.96
2023-01-07T02:32:53.196Z,9.96
2023-01-07T02:35:36.160Z,9.97
2023-01-07T02:38:21.918Z,9.99
2023-01-07T02:41:32.205Z,10.01
2023-01-07T02:44:11.919Z,10.01
2023-01-07T02:47:06.646Z,10.04
2023-01-07T02:49:35.549Z,10.03
2023-01-07T02:52:24.883Z,10.05
2023-01-07T02:55:12.059Z,10.05
2023-01-07T02:57:46.357Z,10.07
2023-01-07T03:00:39.877Z,10.07
2023-01-07T03:03:44.549Z,10.07
2023-01-07T03:06:24.329Z,10.08
2023-01-07T03:09:22.458Z,10.10
2023-01-07T03:12:11.669Z,10.09
2023-01-07T03:14:50.739Z,10.07
2023-01-07T03:17:34.495Z,10.07
2023-01-07T03:20:05.689Z,10.07
2023-01-07T03:22:37.444Z,10.06
2023-01-07T03:25:06.967Z,10.06
2023-01-07T03:27:36.773Z,10.06
2023-01-07T03:30:12.894Z,10.06
2023-01-07T03:33:01.652Z,10.07
2023-01-07T03:35:34.819Z,10.05
2023-01-07T03:38:05.061Z,10.06
2023-01-07T03:40:32.915Z,10.07
2023-01-07T03:43:00.829Z,10.08
2023-01-07T03:45:29.250Z,10.08
2023-01-07T03:47:59.227Z,10.08
2023-01-07T03:50:35.343Z,10.07
2023-01-07T03:53:03.573Z,10.07
2023-01-07T03:55:34.413Z,10.08
2023-01-07T03:58:02.425Z,10.08
2023-01-07T04:00:29.923Z,10.09
2023-01-07T04:03:06.476Z,10.07
2023-01-07T04:05:38.911Z,10.08
2023-01-07T04:08:06.356Z,10.08
2023-01-07T04:10:36.869Z,10.10
2023-01-07T04:13:04.323Z,10.10
2023-01-07T04:15:32.057Z,10.09
2023-01-07T04:17:59.639Z,10.11
2023-01-07T04:20:28.199Z,10.07
2023-01-07T04:22:55.713Z,10.07
2023-01-07T04:25:23.667Z,10.07
2023-01-07T04:27:51.366Z,10.07
2023-01-07T04:30:18.886Z,10.08
2023-01-07T04:32:46.328Z,10.07
2023-01-07T04:35:13.796Z,10.08
2023-01-07T04:37:41.407Z,10.10
2023-01-07T04:40:09.832Z,10.11
2023-01-07T04:42:38.173Z,10.14
2023-01-07T04:45:09.054Z,10.14
2023-01-07T04:47:36.827Z,10.15
2023-01-07T04:50:05.333Z,10.15
2023-01-07T04:52:35.806Z,10.15
2023-01-07T04:55:05.137Z,10.15
2023-01-07T04:57:32.982Z,10.13
2023-01-07T05:00:00.860Z,10.14
2023-01-07T05:02:28.480Z,10.12
2023-01-07T05:04:56.353Z,10.12
2023-01-07T05:07:23.782Z,10.11
2023-01-07T05:09:52.111Z,10.10
2023-01-07T05:12:20.385Z,10.08
2023-01-07T05:14:48.775Z,10.07
2023-01-07T05:17:16.399Z,10.04
2023-01-07T05:19:45.048Z,10.03
2023-01-07T05:22:14.224Z,10.01
2023-01-07T05:24:42.624Z,10.01
2023-01-07T05:27:10.621Z,10.00
2023-01-07T05:29:39.127Z,10.01
2023-01-07T05:32:06.619Z,10.01
2023-01-07T05:34:35.503Z,10.02
2023-01-07T05:37:03.929Z,10.03
2023-01-07T05:39:31.740Z,10.03
2023-01-07T05:41:59.891Z,10.05
2023-01-07T05:44:27.687Z,10.06
2023-01-07T05:46:55.129Z,10.08
2023-01-07T05:49:22.746Z,10.09
2023-01-07T05:51:50.414Z,10.10
2023-01-07T05:54:17.891Z,10.11
2023-01-07T05:56:45.371Z,10.14
2023-01-07T05:59:12.942Z,10.16
2023-01-07T06:01:40.355Z,10.17
2023-01-07T06:04:08.318Z,10.18
2023-01-07T06:06:35.899Z,10.20
2023-01-07T06:09:03.699Z,10.21
2023-01-07T06:11:31.508Z,10.24
2023-01-07T06:13:58.935Z,10.23
2023-01-07T06:16:26.372Z,10.24
2023-01-07T06:18:57.782Z,10.25
2023-01-07T06:21:25.244Z,10.24
2023-01-07T06:23:52.815Z,10.26
2023-01-07T06:26:20.268Z,10.26
2023-01-07T06:28:47.786Z,10.27
2023-01-07T06:31:15.281Z,10.27
2023-01-07T06:33:42.796Z,10.27
2023-01-07T06:36:12.136Z,10.27
2023-01-07T06:38:41.554Z,10.27
2023-01-07T06:41:09.316Z,10.27
2023-01-07T06:43:36.862Z,10.27
2023-01-07T06:46:04.817Z,10.27
2023-01-07T06:48:32.295Z,10.27
2023-01-07T06:50:59.780Z,10.28
2023-01-07T06:53:27.240Z,10.28
2023-01-07T06:55:54.727Z,10.28
2023-01-07T06:58:22.468Z,10.28
2023-01-07T07:00:50.198Z,10.27
2023-01-07T07:03:17.801Z,10.28
2023-01-07T07:05:45.437Z,10.28
2023-01-07T07:08:13.003Z,10.29
2023-01-07T07:10:40.559Z,10.28
2023-01-07T07:13:08.443Z,10.27
2023-01-07T07:15:35.896Z,10.27
2023-01-07T07:18:03.763Z,10.27
2023-01-07T07:20:31.227Z,10.26
2023-01-07T07:22:58.744Z,10.25
2023-01-07T07:25:26.220Z,10.23
2023-01-07T07:27:53.686Z,10.24
2023-01-07T07:30:21.151Z,10.24
2023-01-07T07:32:48.641Z,10.25
2023-01-07T07:35:16.109Z,10.22
2023-01-07T07:37:43.803Z,10.23
2023-01-07T07:40:11.827Z,10.22
2023-01-07T07:43:09.485Z,10.22
2023-01-07T07:45:27.233Z,10.20
2023-01-07T07:47:54.638Z,10.20
2023-01-07T07:50:22.301Z,10.19
2023-01-07T07:52:49.793Z,10.20
2023-01-07T07:55:19.956Z,10.21
2023-01-07T07:57:57.119Z,10.22
2023-01-07T08:00:25.476Z,10.22
2023-01-07T08:02:52.985Z,10.23
2023-01-07T08:05:20.516Z,10.23
2023-01-07T08:07:47.942Z,10.24
2023-01-07T08:10:15.430Z,10.24
2023-01-07T08:12:42.993Z,10.25
2023-01-07T08:15:10.745Z,10.26
2023-01-07T08:17:38.352Z,10.27
2023-01-07T08:20:07.853Z,10.27
2023-01-07T08:22:35.714Z,10.28
2023-01-07T08:25:03.601Z,10.30
2023-01-07T08:27:32.405Z,10.32
2023-01-07T08:29:59.794Z,10.33
2023-01-07T08:32:27.346Z,10.34
2023-01-07T08:34:56.200Z,10.36
2023-01-07T08:37:23.740Z,10.37
2023-01-07T08:39:51.205Z,10.38
2023-01-07T08:42:18.671Z,10.39
2023-01-07T08:44:46.191Z,10.41
2023-01-07T08:47:14.520Z,10.42
2023-01-07T08:49:42.166Z,10.44
2023-01-07T08:52:09.641Z,10.45
2023-01-07T08:54:37.085Z,10.47
2023-01-07T08:57:04.601Z,10.47
2023-01-07T08:59:32.001Z,10.48
2023-01-07T09:01:59.517Z,10.47
2023-01-07T09:04:27.032Z,10.48
2023-01-07T09:06:56.665Z,10.49
2023-01-07T09:09:24.216Z,10.50
2023-01-07T09:11:51.828Z,10.51
2023-01-07T09:14:20.704Z,10.53
2023-01-07T09:16:48.175Z,10.53
2023-01-07T09:19:15.812Z,10.54
2023-01-07T09:21:43.640Z,10.56
2023-01-07T09:24:11.384Z,10.57
2023-01-07T09:26:38.816Z,10.59
2023-01-07T09:29:06.192Z,10.60
2023-01-07T09:31:33.702Z,10.61
2023-01-07T09:34:01.212Z,10.63
2023-01-07T09:36:28.715Z,10.66
2023-01-07T09:38:56.165Z,10.71
2023-01-07T09:41:50.967Z,10.74
2023-01-07T09:44:36.324Z,10.74
2023-01-07T09:47:06.483Z,10.79
2023-01-07T09:49:34.611Z,10.82
2023-01-07T09:52:26.540Z,10.85
2023-01-07T09:55:02.969Z,10.81
2023-01-07T09:57:30.333Z,10.82
2023-01-07T09:59:57.763Z,10.86
2023-01-07T10:02:44.045Z,10.90
2023-01-07T10:05:58.090Z,10.95
2023-01-07T10:08:52.811Z,10.99
2023-01-07T10:12:05.791Z,11.01
2023-01-07T10:15:14.084Z,11.03
2023-01-07T10:18:06.877Z,11.07
2023-01-07T10:21:06.040Z,11.14
2023-01-07T10:23:41.192Z,11.20
2023-01-07T10:26:41.215Z,11.26
2023-01-07T10:29:26.675Z,11.29
2023-01-07T10:32:00.104Z,11.34
2023-01-07T10:34:37.389Z,11.37
2023-01-07T10:37:32.504Z,11.41
2023-01-07T10:40:46.422Z,11.45
2023-01-07T10:43:45.308Z,11.50
2023-01-07T10:46:44.880Z,11.55
2023-01-07T10:49:45.550Z,11.57
2023-01-07T10:52:41.210Z,11.60
2023-01-07T10:55:27.396Z,11.63
2023-01-07T10:57:54.829Z,11.67
2023-01-07T11:00:25.271Z,11.71
2023-01-07T11:02:59.039Z,11.74
2023-01-07T11:05:37.646Z,11.76
2023-01-07T11:08:19.492Z,11.77
2023-01-07T11:10:48.015Z,11.80
2023-01-07T11:13:30.593Z,11.82
2023-01-07T11:16:10.170Z,11.82
2023-01-07T11:19:10.642Z,11.85
2023-01-07T11:21:43.623Z,11.86
2023-01-07T11:24:28.035Z,11.91
2023-01-07T11:27:18.473Z,11.92
2023-01-07T11:30:15.396Z,11.91
2023-01-07T11:32:58.682Z,11.93
2023-01-07T11:35:31.604Z,11.93
2023-01-07T11:38:01.771Z,11.95
2023-01-07T11:40:32.828Z,11.94
2023-01-07T11:43:22.425Z,11.95
2023-01-07T11:46:19.563Z,11.97
2023-01-07T11:49:03.286Z,12.01
2023-01-07T11:51:40.876Z,12.04
2023-01-07T11:54:21.893Z,12.10
2023-01-07T11:56:54.044Z,12.11
2023-01-07T11:59:30.496Z,12.14
2023-01-07T12:01:59.777Z,12.15
2023-01-07T12:04:35.642Z,12.20
2023-01-07T12:07:15.161Z,12.20
2023-01-07T12:09:45.760Z,12.24
2023-01-07T12:12:34.134Z,12.26
2023-01-07T12:15:19.690Z,12.27
2023-01-07T12:18:15.396Z,12.24
2023-01-07T12:21:37.007Z,12.25
2023-01-07T12:24:38.851Z,12.22
2023-01-07T12:28:02.224Z,12.26
2023-01-07T12:30:49.565Z,12.26
2023-01-07T12:33:59.241Z,12.30
2023-01-07T12:36:54.407Z,12.30
2023-01-07T12:39:35.956Z,12.30
2023-01-07T12:42:14.119Z,12.31
2023-01-07T12:44:55.292Z,12.32
2023-01-07T12:47:38.769Z,12.34
2023-01-07T12:50:18.233Z,12.36
2023-01-07T12:53:11.145Z,12.40
2023-01-07T12:55:57.323Z,12.43
2023-01-07T12:58:57.986Z,12.45
2023-01-07T13:01:35.738Z,12.47
2023-01-07T13:04:28.626Z,12.51
2023-01-07T13:07:13.879Z,12.53
2023-01-07T13:10:24.413Z,12.51
2023-01-07T13:13:04.254Z,12.50
2023-01-07T13:15:41.618Z,12.47
2023-01-07T13:18:12.187Z,12.41
2023-01-07T13:21:20.213Z,12.38
2023-01-07T13:24:09.334Z,12.31
2023-01-07T13:27:09.472Z,12.26
2023-01-07T13:29:48.604Z,12.21
2023-01-07T13:32:45.918Z,12.18
2023-01-07T13:36:03.932Z,12.14
2023-01-07T13:38:56.786Z,12.11
2023-01-07T13:41:47.072Z,12.11
2023-01-07T13:44:52.492Z,12.13
2023-01-07T13:47:25.313Z,12.14
2023-01-07T13:50:02.521Z,12.12
2023-01-07T13:52:33.497Z,12.11
2023-01-07T13:55:23.838Z,12.06
2023-01-07T13:57:51.530Z,12.02
2023-01-07T14:00:41.758Z,12.02
2023-01-07T14:03:33.012Z,11.98
2023-01-07T14:06:31.991Z,11.93
2023-01-07T14:09:08.566Z,11.90
2023-01-07T14:11:36.377Z,11.85
2023-01-07T14:14:41.528Z,11.82
2023-01-07T14:17:33.623Z,11.74
2023-01-07T14:20:49.419Z,11.70
2023-01-07T14:23:42.503Z,11.62
2023-01-07T14:26:40.592Z,11.59
2023-01-07T14:29:31.080Z,11.59
2023-01-07T14:32:32.930Z,11.56
2023-01-07T14:35:22.494Z,11.52
2023-01-07T14:37:49.912Z,11.49
2023-01-07T14:40:26.448Z,11.48
2023-01-07T14:42:55.678Z,11.45
2023-01-07T14:45:41.458Z,11.41
2023-01-07T14:48:28.818Z,11.37
2023-01-07T14:51:35.471Z,11.34
2023-01-07T14:54:30.970Z,11.28
2023-01-07T14:57:19.204Z,11.23
2023-01-07T15:00:11.789Z,11.20
2023-01-07T15:03:16.602Z,11.15
2023-01-07T15:06:20.478Z,11.11
2023-01-07T15:09:19.804Z,11.05
2023-01-07T15:12:14.016Z,11.02
2023-01-07T15:15:07.565Z,10.98
2023-01-07T15:17:40.387Z,10.95
2023-01-07T15:20:14.532Z,10.92
2023-01-07T15:23:15.959Z,10.92
2023-01-07T15:26:07.278Z,10.87
2023-01-07T15:28:54.820Z,10.83
2023-01-07T15:31:42.234Z,10.80
2023-01-07T15:34:16.874Z,10.74
2023-01-07T15:36:50.214Z,10.70
2023-01-07T15:39:33.318Z,10.67
2023-01-07T15:42:04.519Z,10.63
2023-01-07T15:44:41.316Z,10.59
2023-01-07T15:47:41.250Z,10.57
2023-01-07T15:50:28.209Z,10.51
2023-01-07T15:52:59.940Z,10.47
2023-01-07T15:55:28.937Z,10.39
2023-01-07T15:58:06.209Z,10.38
2023-01-07T16:00:37.189Z,10.39
2023-01-07T16:03:06.021Z,10.38
2023-01-07T16:05:40.234Z,10.38
2023-01-07T16:08:19.128Z,10.37
2023-01-07T16:11:11.836Z,10.35
2023-01-07T16:13:42.190Z,10.31
2023-01-07T16:16:17.011Z,10.32
2023-01-07T16:18:57.699Z,10.31
2023-01-07T16:21:31.711Z,10.30
2023-01-07T16:23:59.210Z,10.30
2023-01-07T16:26:41.562Z,10.30
2023-01-07T16:29:18.467Z,10.29
2023-01-07T16:31:46.796Z,10.27
2023-01-07T16:34:26.633Z,10.28
2023-01-07T16:36:59.010Z,10.27
2023-01-07T16:39:41.548Z,10.27
2023-01-07T16:42:27.186Z,10.26
2023-01-07T16:44:54.708Z,10.24
2023-01-07T16:47:25.579Z,10.22
2023-01-07T16:49:56.261Z,10.21
2023-01-07T16:52:33.051Z,10.21
2023-01-07T16:55:01.364Z,10.18
2023-01-07T16:57:33.292Z,10.18
2023-01-07T17:00:04.607Z,10.19
2023-01-07T17:02:48.731Z,10.19
2023-01-07T17:05:23.066Z,10.19
2023-01-07T17:07:58.269Z,10.19
2023-01-07T17:10:36.099Z,10.19
2023-01-07T17:13:31.880Z,10.17
2023-01-07T17:16:30.605Z,10.15
2023-01-07T17:19:26.327Z,10.14
2023-01-07T17:21:55.071Z,10.10
2023-01-07T17:24:28.577Z,10.12
2023-01-07T17:27:02.720Z,10.12
2023-01-07T17:29:37.486Z,10.12
2023-01-07T17:32:05.684Z,10.10
2023-01-07T17:34:35.728Z,10.09
2023-01-07T17:37:03.125Z,10.06
2023-01-07T17:39:30.711Z,10.04
2023-01-07T17:42:16.855Z,10.01
2023-01-07T17:44:45.983Z,9.94
2023-01-07T17:47:14.828Z,9.91
2023-01-07T17:49:42.827Z,9.87
2023-01-07T17:52:10.833Z,9.85
2023-01-07T17:54:45.452Z,9.82
2023-01-07T17:57:12.875Z,9.79
2023-01-07T17:59:48.913Z,9.77
2023-01-07T18:02:20.723Z,9.76
2023-01-07T18:04:48.350Z,9.75
2023-01-07T18:07:15.946Z,9.74
2023-01-07T18:09:44.450Z,9.74
2023-01-07T18:12:30.975Z,9.74
2023-01-07T18:15:03.467Z,9.71
2023-01-07T18:17:31.018Z,9.68
2023-01-07T18:20:03.860Z,9.67
2023-01-07T18:22:31.324Z,9.65
2023-01-07T18:24:59.388Z,9.65
2023-01-07T18:27:26.816Z,9.65
2023-01-07T18:29:55.478Z,9.64
2023-01-07T18:32:22.983Z,9.63
2023-01-07T18:34:50.479Z,9.64
2023-01-07T18:37:17.977Z,9.64
2023-01-07T18:39:46.023Z,9.64
2023-01-07T18:42:13.850Z,9.66
2023-01-07T18:44:41.314Z,9.66
2023-01-07T18:47:08.927Z,9.68
2023-01-07T18:49:36.332Z,9.70
2023-01-07T18:52:03.870Z,9.70
2023-01-07T18:54:33.146Z,9.73
2023-01-07T18:57:00.832Z,9.73
2023-01-07T18:59:28.208Z,9.74
2023-01-07T19:02:00.054Z,9.75
2023-01-07T19:04:28.282Z,9.76
2023-01-07T19:06:56.486Z,9.78
2023-01-07T19:09:24.178Z,9.81
2023-01-07T19:11:51.600Z,9.84
2023-01-07T19:14:19.580Z,9.88
2023-01-07T19:16:47.063Z,9.89
2023-01-07T19:19:14.599Z,9.92
2023-01-07T19:21:42.939Z,9.94
2023-01-07T19:24:10.418Z,9.97
2023-01-07T19:26:38.096Z,10.00
2023-01-07T19:29:05.891Z,10.01
2023-01-07T19:31:34.474Z,10.04
2023-01-07T19:34:04.714Z,10.05
2023-01-07T19:36:32.337Z,10.04
2023-01-07T19:39:00.389Z,10.05
2023-01-07T19:41:28.344Z,10.08
2023-01-07T19:44:00.995Z,10.12
2023-01-07T19:46:29.256Z,10.13
2023-01-07T19:48:56.701Z,10.13
2023-01-07T19:51:24.130Z,10.14
2023-01-07T19:53:51.578Z,10.16
2023-01-07T19:56:19.058Z,10.17
2023-01-07T19:58:46.639Z,10.18
2023-01-07T20:01:18.063Z,10.22
2023-01-07T20:03:46.410Z,10.21
2023-01-07T20:06:17.855Z,10.22
2023-01-07T20:08:46.101Z,10.21
2023-01-07T20:11:14.800Z,10.23
2023-01-07T20:13:46.762Z,10.24
2023-01-07T20:16:21.768Z,10.24
2023-01-07T20:18:52.992Z,10.24
2023-01-07T20:21:26.191Z,10.27
2023-01-07T20:23:54.603Z,10.27
2023-01-07T20:26:25.970Z,10.30
2023-01-07T20:28:54.641Z,10.29
2023-01-07T20:31:24.607Z,10.31
2023-01-07T20:33:55.603Z,10.32
2023-01-07T20:36:30.366Z,10.35
2023-01-07T20:39:03.853Z,10.32
2023-01-07T20:41:33.255Z,10.34
2023-01-07T20:44:04.576Z,10.34
2023-01-07T20:46:35.012Z,10.33
2023-01-07T20:49:02.660Z,10.32
2023-01-07T20:51:31.180Z,10.30
2023-01-07T20:54:05.890Z,10.30
2023-01-07T20:56:33.402Z,10.29
2023-01-07T20:59:02.756Z,10.31
2023-01-07T21:01:30.384Z,10.29
2023-01-07T21:03:58.266Z,10.27
2023-01-07T21:06:25.675Z,10.28
2023-01-07T21:08:53.294Z,10.26
2023-01-07T21:11:23.130Z,10.27
2023-01-07T21:13:52.206Z,10.27
2023-01-07T21:16:19.901Z,10.25
2023-01-07T21:18:47.914Z,10.25
2023-01-07T21:21:19.360Z,10.24
2023-01-07T21:23:48.262Z,10.24
2023-01-07T21:26:16.515Z,10.24
2023-01-07T21:28:44.847Z,10.25
2023-01-07T21:31:15.388Z,10.27
2023-01-07T21:33:44.134Z,10.26
2023-01-07T21:36:19.480Z,10.28
2023-01-07T21:38:53.631Z,10.29
2023-01-07T21:41:23.428Z,10.28
2023-01-07T21:44:04.292Z,10.28
2023-01-07T21:46:31.879Z,10.28
2023-01-07T21:49:01.167Z,10.28
2023-01-07T21:51:28.879Z,10.29
2023-01-07T21:53:58.434Z,10.28
2023-01-07T21:56:32.164Z,10.28
2023-01-07T21:59:00.257Z,10.28
2023-01-07T22:01:29.247Z,10.27
2023-01-07T22:03:59.139Z,10.25
2023-01-07T22:06:35.859Z,10.25
2023-01-07T22:09:13.517Z,10.21
2023-01-07T22:11:43.491Z,10.17
2023-01-07T22:14:18.455Z,10.17
2023-01-07T22:16:48.944Z,10.11
2023-01-07T22:19:19.701Z,10.08
2023-01-07T22:21:50.048Z,10.04
2023-01-07T22:24:17.581Z,10.03
2023-01-07T22:26:45.024Z,10.01
2023-01-07T22:29:36.696Z,10.02
2023-01-07T22:32:04.591Z,9.98
2023-01-07T22:34:32.485Z,9.97
2023-01-07T22:37:17.519Z,9.95
2023-01-07T22:39:55.635Z,9.94
2023-01-07T22:42:34.265Z,9.94
2023-01-07T22:45:20.190Z,9.94
2023-01-07T22:47:50.942Z,9.94
2023-01-07T22:50:19.222Z,9.94
2023-01-07T22:52:47.342Z,9.97
2023-01-07T22:55:17.055Z,9.99
2023-01-07T22:57:44.624Z,10.01
2023-01-07T23:00:52.154Z,10.03
2023-01-07T23:03:21.374Z,10.04
2023-01-07T23:05:49.920Z,10.05
2023-01-07T23:08:18.092Z,10.06
2023-01-07T23:10:45.841Z,10.10
2023-01-07T23:13:17.992Z,10.09
2023-01-07T23:15:48.332Z,10.13
2023-01-07T23:18:42.541Z,10.13
2023-01-07T23:21:13.181Z,10.12
2023-01-07T23:23:40.577Z,10.12
2023-01-07T23:26:08.093Z,10.14
2023-01-07T23:28:35.529Z,10.15
2023-01-07T23:31:02.987Z,10.16
2023-01-07T23:33:30.423Z,10.16
2023-01-07T23:36:07.652Z,10.17
2023-01-07T23:38:42.632Z,10.17
2023-01-07T23:41:12.239Z,10.17
2023-01-07T23:43:39.749Z,10.18
2023-01-07T23:46:08.576Z,10.19
2023-01-07T23:48:38.234Z,10.20
2023-01-07T23:51:13.765Z,10.20
2023-01-07T23:53:42.228Z,10.19
2023-01-07T23:56:10.520Z,10.17
2023-01-07T23:58:38.692Z,10.16
